Time;durP1;ratioP1;P1;durP2;ratioP2;P2;SDS_P1;SDS_P2;PMS_P1;PMS_P2;Temp;Humidity;BMP_temperature;BMP_pressure;BME280_temperature;BME280_humidity;BME280_pressure;Samples;Min_cycle;Max_cycle;Signal;HPM_P1;HPM_P2
2022/10/24 04:32:04;;;;;;;;;1.00;1.00;;;;;16.62;70.52;100342.72;5120847;27;45540;-73
2022/10/24 04:34:29;;;;;;;;;3.25;1.00;;;;;16.65;70.46;100342.47;5082714;27;46340;-72
2022/10/24 04:36:54;;;;;;;;;3.50;2.25;;;;;16.59;70.33;100345.59;5098305;27;45378;-71
2022/10/24 04:39:20;;;;;;;;;1.25;1.25;;;;;16.57;69.97;100344.88;5098713;27;45442;-72
2022/10/24 04:41:45;;;;;;;;;6.25;1.00;;;;;16.67;70.44;100362.19;5098979;27;45365;-71
2022/10/24 04:44:11;;;;;;;;;1.00;1.00;;;;;16.68;70.31;100353.03;5098222;27;46033;-72
2022/10/24 04:46:36;;;;;;;;;3.75;2.00;;;;;16.57;70.56;100375.53;5098001;27;45432;-72
2022/10/24 04:49:02;;;;;;;;;2.00;2.00;;;;;16.62;70.65;100359.81;5098370;27;45663;-72
2022/10/24 04:51:27;;;;;;;;;1.25;1.00;;;;;16.50;70.82;100355.28;5069618;28;45499;-72
2022/10/24 04:53:52;;;;;;;;;1.00;1.00;;;;;16.57;71.03;100359.28;5093844;27;45236;-72
2022/10/24 04:56:18;;;;;;;;;1.50;0.25;;;;;16.56;71.00;100356.69;5097964;27;45314;-72
2022/10/24 04:58:44;;;;;;;;;2.00;1.00;;;;;16.33;70.82;100339.50;5065975;27;45466;-70
2022/10/24 05:01:10;;;;;;;;;1.50;1.50;;;;;16.47;71.19;100376.31;5097656;27;45499;-71
2022/10/24 05:03:35;;;;;;;;;1.75;1.00;;;;;16.47;71.08;100377.19;5097926;27;46119;-71
2022/10/24 05:06:01;;;;;;;;;2.00;1.00;;;;;16.52;70.83;100379.53;5098020;27;45448;-72
2022/10/24 05:08:27;;;;;;;;;3.25;2.00;;;;;16.57;71.07;100391.75;5097871;27;45660;-72
2022/10/24 05:10:52;;;;;;;;;0.75;0.75;;;;;16.56;70.86;100394.56;5097763;27;45403;-71
2022/10/24 05:13:19;;;;;;;;;1.00;0.25;;;;;16.54;71.07;100404.63;5097501;27;45622;-71
2022/10/24 05:15:44;;;;;;;;;3.00;2.00;;;;;16.47;70.82;100393.44;5088085;27;45337;-76
2022/10/24 05:18:09;;;;;;;;;4.00;1.00;;;;;16.57;70.59;100426.94;5092927;27;45430;-73
2022/10/24 05:20:35;;;;;;;;;2.25;0.00;;;;;16.53;71.44;100405.63;5097742;27;45361;-71
2022/10/24 05:23:00;;;;;;;;;3.25;2.00;;;;;16.50;71.45;100403.16;5078136;27;47084;-75
2022/10/24 05:25:26;;;;;;;;;5.00;1.50;;;;;16.44;71.69;100400.91;5097803;27;45303;-76
2022/10/24 05:27:51;;;;;;;;;3.00;1.00;;;;;16.44;71.68;100398.19;5098490;27;45493;-75
2022/10/24 05:30:16;;;;;;;;;4.00;1.00;;;;;16.51;71.57;100415.69;5097690;27;45267;-71
2022/10/24 05:32:42;;;;;;;;;6.00;0.75;;;;;16.48;71.89;100415.94;5098436;27;46718;-73
2022/10/24 05:35:08;;;;;;;;;4.25;2.00;;;;;16.44;71.87;100425.25;5101494;27;45227;-73
2022/10/24 05:37:33;;;;;;;;;0.00;0.00;;;;;16.22;71.78;100393.56;5097050;27;45510;-82
2022/10/24 05:39:59;;;;;;;;;1.00;1.00;;;;;16.49;72.19;100431.19;5097160;27;45224;-83
2022/10/24 05:42:24;;;;;;;;;3.25;1.75;;;;;16.51;71.89;100440.91;5078622;27;47148;-73
2022/10/24 05:44:49;;;;;;;;;4.50;1.00;;;;;16.62;71.95;100435.59;5097240;27;45153;-78
2022/10/24 05:47:15;;;;;;;;;6.00;1.75;;;;;16.62;71.49;100427.47;5097160;27;45365;-75
2022/10/24 05:49:40;;;;;;;;;1.50;1.50;;;;;16.58;71.88;100425.97;5096871;27;45520;-79
2022/10/24 05:52:06;;;;;;;;;0.25;0.25;;;;;16.56;71.74;100427.06;5066797;27;46389;-77
2022/10/24 05:54:31;;;;;;;;;2.25;1.25;;;;;16.61;71.70;100419.47;5076376;27;45639;-79
2022/10/24 05:56:57;;;;;;;;;3.75;1.75;;;;;16.55;71.47;100419.91;5078455;27;45292;-79
2022/10/24 05:59:22;;;;;;;;;2.00;1.00;;;;;16.50;71.44;100420.22;5079664;27;45579;-78
2022/10/24 06:01:47;;;;;;;;;1.25;1.25;;;;;16.49;71.95;100426.66;5083749;27;45368;-77
2022/10/24 06:04:13;;;;;;;;;2.75;1.00;;;;;16.41;72.01;100423.66;5083677;28;45264;-79
2022/10/24 06:06:41;;;;;;;;;1.00;1.00;;;;;16.51;72.12;100449.03;5082488;27;45406;-79
2022/10/24 06:09:06;;;;;;;;;6.00;1.25;;;;;16.52;72.02;100455.31;5085454;27;45407;-78
2022/10/24 06:11:31;;;;;;;;;1.75;1.00;;;;;16.53;71.98;100454.34;5079476;27;47287;-78
2022/10/24 06:13:57;;;;;;;;;2.00;0.75;;;;;16.31;72.19;100411.81;5097111;27;45438;-79
2022/10/24 06:16:23;;;;;;;;;1.00;1.00;;;;;16.50;72.01;100436.47;5082310;27;46048;-79
2022/10/24 06:18:49;;;;;;;;;3.50;0.75;;;;;16.51;71.86;100450.88;5076543;28;45441;-78
2022/10/24 06:21:15;;;;;;;;;2.50;1.00;;;;;16.50;71.88;100447.28;5072049;27;46221;-78
2022/10/24 06:23:40;;;;;;;;;2.00;1.00;;;;;16.19;72.23;100399.19;5098337;27;45465;-76
2022/10/24 06:26:08;;;;;;;;;2.25;1.25;;;;;16.38;72.00;100432.00;5078753;28;45212;-78
2022/10/24 06:28:34;;;;;;;;;4.00;1.00;;;;;16.40;72.40;100440.00;5083850;27;45323;-77
2022/10/24 06:31:02;;;;;;;;;3.50;2.50;;;;;16.19;72.27;100405.44;5077362;27;48370;-78
2022/10/24 06:33:27;;;;;;;;;5.50;2.00;;;;;16.33;72.20;100434.19;5096174;27;45532;-80
2022/10/24 06:35:52;;;;;;;;;2.00;1.00;;;;;16.37;71.83;100445.63;5096339;27;45316;-78
2022/10/24 06:38:18;;;;;;;;;1.00;1.00;;;;;16.37;71.81;100459.16;5088347;27;45260;-77
2022/10/24 06:40:43;;;;;;;;;4.25;2.75;;;;;16.38;71.62;100472.59;5075888;28;45330;-77
2022/10/24 06:43:08;;;;;;;;;2.50;2.00;;;;;16.37;71.85;100469.97;5076688;28;45574;-79
2022/10/24 06:45:34;;;;;;;;;4.50;1.00;;;;;16.30;71.46;100452.50;5076382;27;45699;-75
2022/10/24 06:47:59;;;;;;;;;4.00;2.00;;;;;16.33;71.33;100480.19;5061156;28;45575;-74
2022/10/24 06:50:25;;;;;;;;;3.00;1.00;;;;;16.33;71.47;100487.44;5089785;27;46245;-72
2022/10/24 06:52:50;;;;;;;;;4.00;2.00;;;;;16.25;71.42;100466.34;5095147;27;45539;-70
2022/10/24 06:55:15;;;;;;;;;1.00;1.00;;;;;16.22;71.85;100480.97;5095910;27;45494;-70
2022/10/24 06:57:41;;;;;;;;;4.50;1.25;;;;;16.22;72.07;100472.84;5096008;27;45249;-70
2022/10/24 07:00:07;;;;;;;;;4.00;1.00;;;;;16.17;71.87;100480.44;5095504;27;45286;-72
2022/10/24 07:02:33;;;;;;;;;5.25;1.00;;;;;16.17;72.15;100488.53;5095866;27;45390;-71
2022/10/24 07:04:58;;;;;;;;;3.25;1.25;;;;;16.21;72.04;100479.25;5095637;27;45459;-69
2022/10/24 07:07:24;;;;;;;;;5.50;1.25;;;;;16.20;72.43;100493.75;5096534;27;45595;-67
2022/10/24 07:09:55;;;;;;;;;3.00;2.00;;;;;16.23;71.79;100489.94;5064568;28;45856;-72
2022/10/24 07:12:22;;;;;;;;;1.75;1.50;;;;;16.21;72.27;100500.88;5065950;27;45252;-71
2022/10/24 07:14:48;;;;;;;;;4.00;1.25;;;;;16.16;72.00;100488.69;5094224;27;45389;-70
2022/10/24 07:17:14;;;;;;;;;4.50;1.50;;;;;16.25;71.94;100512.31;5074882;28;45554;-71
2022/10/24 07:19:40;;;;;;;;;1.50;1.50;;;;;16.21;71.76;100513.53;5086312;27;45523;-69
2022/10/24 07:22:05;;;;;;;;;3.00;1.00;;;;;16.27;72.25;100529.31;5081223;27;45488;-70
2022/10/24 07:24:31;;;;;;;;;3.25;1.00;;;;;16.19;72.20;100502.81;5077526;27;45467;-73
2022/10/24 07:26:56;;;;;;;;;6.50;1.50;;;;;16.34;71.85;100535.13;5074650;27;45664;-73
2022/10/24 07:29:22;;;;;;;;;11.50;2.75;;;;;16.30;71.75;100515.56;5089323;27;45770;-73
2022/10/24 07:31:47;;;;;;;;;2.00;1.75;;;;;16.45;71.51;100529.81;5095334;27;45545;-75
2022/10/24 07:34:13;;;;;;;;;1.25;1.00;;;;;16.44;71.71;100538.91;5095327;27;45295;-73
2022/10/24 07:36:38;;;;;;;;;2.25;1.00;;;;;16.43;71.39;100529.03;5096027;27;45462;-72
2022/10/24 07:39:04;;;;;;;;;4.75;1.50;;;;;16.45;71.74;100527.09;5094817;27;45474;-72
2022/10/24 07:41:31;;;;;;;;;0.00;0.00;;;;;16.45;71.78;100541.50;5093867;27;45326;-70
2022/10/24 07:43:58;;;;;;;;;1.50;1.00;;;;;16.41;71.34;100522.91;5094718;27;45335;-70
2022/10/24 07:46:24;;;;;;;;;2.25;2.25;;;;;16.43;71.87;100548.84;5094704;27;45436;-71
2022/10/24 07:48:51;;;;;;;;;2.00;2.00;;;;;16.46;71.64;100562.19;5093337;27;45487;-71
2022/10/24 07:51:17;;;;;;;;;4.00;3.00;;;;;16.53;71.63;100563.44;5073436;28;45406;-72
2022/10/24 07:53:42;;;;;;;;;1.00;1.00;;;;;16.57;71.55;100564.97;5074104;27;45303;-72
2022/10/24 07:56:13;;;;;;;;;3.75;2.00;;;;;16.56;71.39;100567.78;5090278;27;45487;-72
2022/10/24 07:58:39;;;;;;;;;2.00;2.00;;;;;16.60;71.24;100569.25;5081041;27;45479;-70
2022/10/24 08:01:07;;;;;;;;;1.00;1.00;;;;;16.50;71.95;100569.06;5074490;27;45499;-72
2022/10/24 08:03:33;;;;;;;;;7.00;3.00;;;;;16.53;71.54;100581.53;5090356;27;45722;-71
2022/10/24 08:05:59;;;;;;;;;4.25;1.00;;;;;16.61;71.83;100584.56;5085604;27;45457;-71
2022/10/24 08:08:25;;;;;;;;;4.00;2.00;;;;;16.62;71.56;100575.47;5074544;27;46478;-70
2022/10/24 08:10:50;;;;;;;;;1.00;1.00;;;;;16.59;71.78;100578.34;5073181;28;45255;-71
2022/10/24 08:13:16;;;;;;;;;3.50;2.00;;;;;16.71;71.87;100584.75;5074866;27;45605;-71
2022/10/24 08:15:42;;;;;;;;;4.75;1.25;;;;;16.77;71.74;100595.13;5093789;27;45397;-71
2022/10/24 08:18:07;;;;;;;;;8.25;3.25;;;;;16.79;71.53;100593.19;5091001;27;46040;-70
2022/10/24 08:20:33;;;;;;;;;2.75;1.00;;;;;16.79;71.15;100580.50;5094291;27;45691;-74
2022/10/24 08:22:58;;;;;;;;;6.75;3.00;;;;;16.78;70.94;100602.28;5094623;27;45621;-71
2022/10/24 08:25:24;;;;;;;;;1.00;1.00;;;;;16.79;71.21;100599.47;5096142;27;45315;-70
2022/10/24 08:27:51;;;;;;;;;5.00;3.00;;;;;16.81;70.47;100600.22;5108338;27;45426;-72
2022/10/24 08:30:19;;;;;;;;;5.00;1.50;;;;;16.84;70.74;100593.72;5083616;27;45366;-71
2022/10/24 08:32:44;;;;;;;;;2.00;2.00;;;;;16.95;70.42;100593.75;5079001;27;45486;-71
2022/10/24 08:35:16;;;;;;;;;3.25;2.00;;;;;16.94;70.33;100601.03;5082103;27;45504;-70
2022/10/24 08:37:41;;;;;;;;;3.25;2.00;;;;;16.96;69.90;100606.31;5094337;27;46033;-71
2022/10/24 08:40:11;;;;;;;;;1.75;1.25;;;;;16.85;69.95;100595.41;5092296;27;45528;-71
2022/10/24 08:42:38;;;;;;;;;2.00;2.00;;;;;16.94;70.00;100592.91;5076890;27;45352;-70
2022/10/24 08:45:09;;;;;;;;;5.00;3.00;;;;;16.95;69.89;100599.19;5080821;27;45347;-73
2022/10/24 08:47:44;;;;;;;;;8.00;1.25;;;;;17.00;69.56;100603.28;5093802;27;47471;-71
2022/10/24 08:50:22;;;;;;;;;2.50;1.50;;;;;17.01;69.77;100607.69;5093690;27;45376;-72
2022/10/24 08:52:56;;;;;;;;;1.00;1.00;;;;;17.07;69.66;100602.81;5069769;28;45386;-70
2022/10/24 08:55:31;;;;;;;;;5.00;2.00;;;;;17.07;69.76;100610.94;5088867;27;45365;-71
2022/10/24 08:58:00;;;;;;;;;3.50;1.00;;;;;17.09;69.60;100626.13;5093263;27;46082;-72
2022/10/24 09:00:31;;;;;;;;;5.00;2.00;;;;;17.17;69.83;100617.41;5093182;27;45508;-71
2022/10/24 09:03:08;;;;;;;;;4.00;2.25;;;;;17.17;70.09;100607.44;5093991;27;45554;-70
2022/10/24 09:05:40;;;;;;;;;4.75;2.75;;;;;17.09;70.31;100609.00;5093348;27;45326;-71
2022/10/24 09:08:42;;;;;;;;;4.75;1.75;;;;;17.16;70.30;100589.47;5093379;27;45975;-71
2022/10/24 09:11:15;;;;;;;;;3.00;2.00;;;;;17.07;70.28;100602.81;5004759;28;45394;-69
2022/10/24 09:13:40;;;;;;;;;3.75;3.00;;;;;17.16;70.46;100611.13;5079366;27;45359;-72
2022/10/24 09:16:13;;;;;;;;;4.75;2.00;;;;;17.25;70.22;100623.97;5080831;27;45315;-72
2022/10/24 09:18:42;;;;;;;;;4.00;2.00;;;;;17.25;69.40;100606.84;5095356;27;46814;-71
2022/10/24 09:21:10;;;;;;;;;1.50;1.00;;;;;17.33;69.44;100620.69;5096696;27;45378;-71
2022/10/24 09:23:36;;;;;;;;;4.75;2.00;;;;;17.34;68.89;100614.28;5097184;27;45326;-71
2022/10/24 09:26:06;;;;;;;;;4.50;3.00;;;;;17.49;68.31;100640.22;5097162;27;45425;-71
2022/10/24 09:28:34;;;;;;;;;5.00;1.00;;;;;17.56;68.16;100629.75;5096769;27;46389;-71
2022/10/24 09:31:11;;;;;;;;;2.00;2.00;;;;;17.52;68.36;100653.56;5096958;27;45305;-71
2022/10/24 09:33:41;;;;;;;;;6.50;4.00;;;;;17.61;68.21;100635.69;5095414;27;45449;-72
2022/10/24 09:36:12;;;;;;;;;4.75;1.75;;;;;17.63;67.99;100612.94;5096411;27;45371;-73
2022/10/24 09:38:39;;;;;;;;;2.00;0.00;;;;;17.68;67.80;100637.88;5095140;27;45429;-70
2022/10/24 09:41:15;;;;;;;;;3.00;2.00;;;;;17.66;67.69;100628.13;5077077;27;45304;-72
2022/10/24 09:43:43;;;;;;;;;0.75;0.75;;;;;17.73;67.73;100640.22;5074906;28;45386;-76
2022/10/24 09:46:12;;;;;;;;;4.75;2.00;;;;;17.70;67.73;100654.84;5074233;28;46297;-75
2022/10/24 09:48:47;;;;;;;;;3.00;1.50;;;;;17.71;68.67;100659.31;5089299;27;45581;-71
2022/10/24 09:51:32;;;;;;;;;4.00;2.50;;;;;17.79;68.65;100656.00;5096964;27;45563;-69
2022/10/24 09:54:03;;;;;;;;;3.50;3.50;;;;;17.72;69.12;100652.03;5097112;27;45258;-71
2022/10/24 09:56:35;;;;;;;;;5.75;2.25;;;;;17.65;69.17;100648.06;5078090;27;45377;-68
2022/10/24 09:59:25;;;;;;;;;4.75;3.00;;;;;17.80;69.45;100670.44;5096169;27;48497;-70
2022/10/24 10:01:50;;;;;;;;;4.00;2.50;;;;;17.72;69.30;100662.88;5088462;27;45648;-69
2022/10/24 10:04:18;;;;;;;;;5.75;1.50;;;;;17.68;69.39;100654.13;5065865;27;45466;-69
2022/10/24 10:06:46;;;;;;;;;4.75;1.50;;;;;17.75;68.90;100654.53;5081157;27;45496;-69
2022/10/24 10:09:15;;;;;;;;;1.00;1.00;;;;;17.76;68.78;100659.84;5084268;27;45456;-69
2022/10/24 10:11:41;;;;;;;;;3.25;2.50;;;;;17.80;68.29;100671.28;5094723;27;45563;-70
2022/10/24 10:14:22;;;;;;;;;3.00;3.00;;;;;17.93;67.58;100676.66;5095547;27;45461;-71
2022/10/24 10:16:59;;;;;;;;;2.75;2.00;;;;;17.91;67.86;100674.06;5093684;27;45595;-72
2022/10/24 10:19:24;;;;;;;;;3.75;2.25;;;;;17.89;67.67;100677.84;5095999;27;45247;-71
2022/10/24 10:21:54;;;;;;;;;5.25;1.25;;;;;17.87;67.34;100671.69;5096111;27;45342;-71
2022/10/24 10:24:34;;;;;;;;;2.00;2.00;;;;;17.93;67.97;100674.81;5096239;27;45469;-71
2022/10/24 10:27:01;;;;;;;;;0.75;0.75;;;;;17.99;67.21;100666.19;5096376;27;45750;-75
2022/10/24 10:29:26;;;;;;;;;2.50;1.75;;;;;18.04;66.69;100655.81;5095044;27;47133;-73
2022/10/24 10:32:02;;;;;;;;;1.25;1.25;;;;;18.25;66.44;100669.56;5104776;27;45350;-70
2022/10/24 10:34:46;;;;;;;;;2.50;2.50;;;;;18.33;66.27;100667.09;5083249;27;45464;-73
2022/10/24 10:37:22;;;;;;;;;2.75;1.50;;;;;18.52;65.95;100674.66;5074029;28;46941;-76
2022/10/24 10:40:15;;;;;;;;;5.00;1.50;;;;;18.61;65.13;100673.09;5088599;27;45382;-75
2022/10/24 10:42:55;;;;;;;;;2.00;2.00;;;;;18.69;65.18;100681.47;5095405;27;45403;-77
2022/10/24 10:45:57;;;;;;;;;3.25;2.25;;;;;18.80;64.38;100686.88;5095698;27;45488;-72
2022/10/24 10:48:51;;;;;;;;;3.25;2.25;;;;;18.87;64.38;100664.56;5096483;27;45546;-80
2022/10/24 10:51:38;;;;;;;;;4.75;3.25;;;;;19.19;63.49;100691.78;5077969;27;47863;-77
2022/10/24 10:54:06;;;;;;;;;4.00;1.00;;;;;19.58;62.37;100687.63;5095406;27;45499;-72
2022/10/24 10:56:47;;;;;;;;;9.50;1.50;;;;;19.91;61.21;100689.31;5093109;27;45486;-69
2022/10/24 10:59:27;;;;;;;;;4.75;3.25;;;;;20.29;60.47;100672.41;5094279;27;45467;-69
2022/10/24 11:02:18;;;;;;;;;5.00;1.50;;;;;20.52;59.30;100694.94;5095237;27;46049;-72
2022/10/24 11:04:56;;;;;;;;;3.00;2.00;;;;;20.83;59.18;100682.19;5094971;27;45614;-71
2022/10/24 11:07:33;;;;;;;;;2.75;2.00;;;;;20.62;57.45;100697.69;5095749;27;45272;-70
2022/10/24 11:10:05;;;;;;;;;1.00;1.00;;;;;20.42;59.10;100674.06;5095200;27;45602;-71
2022/10/24 11:12:30;;;;;;;;;5.50;2.75;;;;;20.97;57.88;100689.09;5084520;27;47834;-71
2022/10/24 11:15:02;;;;;;;;;4.50;2.00;;;;;21.17;57.03;100684.59;5074521;28;45351;-72
2022/10/24 11:17:33;;;;;;;;;2.75;1.25;;;;;21.22;56.31;100679.59;5086049;27;45497;-70
2022/10/24 11:20:02;;;;;;;;;2.75;2.75;;;;;21.06;56.63;100685.56;5074520;27;45516;-70
2022/10/24 11:22:42;;;;;;;;;1.00;0.50;;;;;21.03;56.31;100678.50;5093507;27;46231;-69
2022/10/24 11:25:21;;;;;;;;;2.75;2.75;;;;;21.08;56.80;100659.88;5092188;27;45402;-71
2022/10/24 11:27:57;;;;;;;;;2.00;0.50;;;;;21.49;55.38;100674.34;5084430;27;45387;-71
2022/10/24 11:30:36;;;;;;;;;1.75;0.75;;;;;22.05;54.46;100673.63;5082828;27;45354;-69
2022/10/24 11:33:06;;;;;;;;;1.25;1.00;;;;;22.26;53.19;100685.25;5074319;27;48281;-72
2022/10/24 11:35:33;;;;;;;;;0.75;0.50;;;;;22.36;52.45;100672.44;5093946;27;45367;-72
2022/10/24 11:38:08;;;;;;;;;3.00;3.00;;;;;22.72;52.21;100676.19;5094747;27;45762;-71
2022/10/24 11:40:35;;;;;;;;;1.25;0.50;;;;;22.86;51.51;100670.28;5078829;27;47391;-73
2022/10/24 11:43:26;;;;;;;;;2.00;1.75;;;;;22.52;52.88;100678.16;5080366;27;45591;-74
2022/10/24 11:46:00;;;;;;;;;5.75;3.25;;;;;22.50;52.87;100688.34;5073890;28;45656;-74
2022/10/24 11:48:28;;;;;;;;;5.75;2.25;;;;;22.64;53.10;100681.53;5086869;27;45353;-75
2022/10/24 11:51:06;;;;;;;;;6.00;2.00;;;;;22.33;53.21;100675.47;5082193;27;45381;-72
2022/10/24 11:53:32;;;;;;;;;2.00;2.00;;;;;22.81;52.84;100683.53;5069219;27;46433;-74
2022/10/24 11:56:30;;;;;;;;;0.50;0.50;;;;;22.85;51.52;100671.28;5076550;27;45506;-73
2022/10/24 11:59:00;;;;;;;;;3.00;1.00;;;;;22.91;51.44;100653.41;5068344;27;45315;-72
2022/10/24 12:01:51;;;;;;;;;0.00;0.00;;;;;23.04;52.59;100662.13;5085615;27;45376;-72
2022/10/24 12:04:54;;;;;;;;;0.75;0.25;;;;;23.41;51.10;100659.28;5094624;27;46530;-73
2022/10/24 12:07:25;;;;;;;;;0.25;0.25;;;;;23.82;50.00;100651.53;5087528;27;45424;-75
2022/10/24 12:10:15;;;;;;;;;2.50;1.00;;;;;24.39;49.02;100640.00;5072241;27;45593;-74
2022/10/24 12:12:59;;;;;;;;;0.75;0.75;;;;;23.81;49.34;100650.66;5073449;27;45612;-74
2022/10/24 12:15:36;;;;;;;;;2.00;1.50;;;;;23.33;49.64;100657.31;5074644;27;47761;-72
2022/10/24 12:18:10;;;;;;;;;1.75;1.75;;;;;22.60;50.86;100609.09;5062112;27;45409;-73
2022/10/24 12:20:38;;;;;;;;;4.75;1.75;;;;;22.18;52.44;100644.16;5094327;27;45478;-72
2022/10/24 12:23:04;;;;;;;;;1.25;0.50;;;;;21.74;53.46;100645.63;5080940;27;45641;-74
2022/10/24 12:25:32;;;;;;;;;2.00;2.00;;;;;21.40;55.36;100648.78;5073715;28;47281;-72
2022/10/24 12:28:18;;;;;;;;;0.00;0.00;;;;;20.85;56.49;100632.97;5078824;27;45378;-73
2022/10/24 12:31:13;;;;;;;;;1.00;1.00;;;;;20.72;56.97;100655.03;5072720;28;45436;-70
2022/10/24 12:33:39;;;;;;;;;0.00;0.00;;;;;20.23;57.81;100629.41;5072134;28;45458;-72
2022/10/24 12:36:05;;;;;;;;;1.50;1.50;;;;;20.24;57.97;100657.50;5082011;27;45372;-71
2022/10/24 12:38:30;;;;;;;;;3.75;1.00;;;;;20.06;58.51;100651.78;5084070;27;45343;-72
2022/10/24 12:41:08;;;;;;;;;1.00;1.00;;;;;20.01;58.63;100662.19;5073377;27;45216;-72
2022/10/24 12:43:43;;;;;;;;;1.00;1.00;;;;;19.91;59.19;100662.13;5073580;28;45437;-71
2022/10/24 12:46:14;;;;;;;;;3.25;0.00;;;;;19.89;59.27;100653.25;5092624;27;46207;-72
2022/10/24 12:49:04;;;;;;;;;9.25;1.50;;;;;19.61;59.72;100645.72;5093953;27;45528;-70
2022/10/24 12:51:29;;;;;;;;;1.00;1.00;;;;;19.53;60.53;100659.97;5096320;27;45401;-72
2022/10/24 12:54:09;;;;;;;;;5.00;1.00;;;;;19.49;60.81;100663.06;5079070;27;45432;-72
2022/10/24 12:56:34;;;;;;;;;0.00;0.00;;;;;19.48;60.66;100669.50;5097666;27;46163;-71
2022/10/24 12:59:15;;;;;;;;;1.00;1.00;;;;;19.46;60.47;100664.16;5097424;27;45413;-73
2022/10/24 13:01:41;;;;;;;;;2.00;2.00;;;;;19.38;60.69;100638.63;5097309;27;45391;-71
2022/10/24 13:04:28;;;;;;;;;4.00;1.50;;;;;19.57;60.57;100660.56;5059113;28;45617;-72
2022/10/24 13:07:21;;;;;;;;;1.00;1.00;;;;;19.49;60.89;100650.31;5084979;27;45583;-72
2022/10/24 13:10:26;;;;;;;;;2.00;0.25;;;;;19.51;61.13;100650.19;5083551;27;45453;-72
2022/10/24 13:13:07;;;;;;;;;4.00;1.00;;;;;19.46;61.80;100663.31;5056708;27;45416;-72
2022/10/24 13:15:35;;;;;;;;;4.50;2.00;;;;;19.33;62.38;100660.72;5081951;27;45350;-72
2022/10/24 13:18:06;;;;;;;;;3.00;0.75;;;;;19.41;62.23;100666.38;5091253;27;45533;-72
2022/10/24 13:20:41;;;;;;;;;4.00;1.25;;;;;19.24;63.49;100656.94;5097320;27;45403;-73
2022/10/24 13:23:23;;;;;;;;;4.25;3.25;;;;;19.24;63.11;100653.34;5094308;27;45428;-73
2022/10/24 13:25:55;;;;;;;;;2.75;1.75;;;;;19.27;62.67;100662.13;5076948;28;45653;-75
2022/10/24 13:28:23;;;;;;;;;1.00;1.00;;;;;19.37;62.80;100664.06;5096016;27;47142;-74
2022/10/24 13:30:57;;;;;;;;;1.50;1.00;;;;;19.44;62.22;100665.28;5096834;27;45500;-73
2022/10/24 13:33:46;;;;;;;;;2.75;0.25;;;;;19.33;62.54;100662.59;5096905;27;45389;-74
2022/10/24 13:36:25;;;;;;;;;1.75;1.00;;;;;19.19;62.67;100661.03;5077478;27;45626;-74
2022/10/24 13:39:02;;;;;;;;;2.75;0.50;;;;;19.21;62.54;100662.63;5081901;27;46153;-74
2022/10/24 13:41:45;;;;;;;;;5.50;2.00;;;;;19.33;62.07;100668.03;5091726;27;45378;-74
2022/10/24 13:44:10;;;;;;;;;3.25;0.50;;;;;19.41;61.59;100670.97;5075089;27;45618;-73
2022/10/24 13:46:42;;;;;;;;;0.00;0.00;;;;;19.25;62.32;100664.09;5067617;27;46448;-74
2022/10/24 13:49:18;;;;;;;;;0.50;0.50;;;;;18.98;62.53;100630.19;5089753;27;46353;-74
2022/10/24 13:51:47;;;;;;;;;3.25;0.50;;;;;18.88;62.45;100625.50;5087931;27;45373;-75
2022/10/24 13:54:24;;;;;;;;;2.25;1.00;;;;;19.17;62.37;100636.69;5096808;27;45525;-74
2022/10/24 13:56:50;;;;;;;;;0.50;0.50;;;;;19.39;62.19;100654.81;5095782;27;45515;-75
2022/10/24 13:59:33;;;;;;;;;0.75;0.75;;;;;19.82;61.20;100648.47;5096314;27;45321;-74
2022/10/24 14:02:06;;;;;;;;;1.75;1.75;;;;;20.13;60.14;100639.38;5096049;27;45450;-75
2022/10/24 14:04:34;;;;;;;;;4.50;1.50;;;;;20.23;59.52;100633.97;5096749;27;45343;-74
2022/10/24 14:07:05;;;;;;;;;0.00;0.00;;;;;20.22;59.98;100637.69;5096277;27;45452;-74
2022/10/24 14:09:40;;;;;;;;;0.75;0.75;;;;;20.72;57.89;100630.50;5096272;27;45307;-75
2022/10/24 14:12:06;;;;;;;;;1.00;1.00;;;;;20.98;57.57;100644.50;5078069;27;46135;-74
2022/10/24 14:14:38;;;;;;;;;1.50;1.50;;;;;21.15;56.86;100650.13;5096326;27;45285;-74
2022/10/24 14:17:21;;;;;;;;;1.75;0.50;;;;;21.24;56.62;100655.78;5075828;28;45604;-75
2022/10/24 14:20:10;;;;;;;;;2.75;1.75;;;;;21.13;56.79;100656.72;5091656;27;45317;-74
2022/10/24 14:22:41;;;;;;;;;3.00;1.00;;;;;20.95;57.33;100647.50;5066636;27;45521;-73
2022/10/24 14:25:30;;;;;;;;;0.50;0.25;;;;;20.94;58.27;100653.94;5076550;27;45259;-73
2022/10/24 14:27:58;;;;;;;;;1.75;0.50;;;;;20.85;58.02;100652.03;5062600;27;45569;-74
2022/10/24 14:30:27;;;;;;;;;2.00;1.00;;;;;20.77;58.40;100650.88;5085475;27;47163;-73
2022/10/24 14:33:26;;;;;;;;;2.50;0.75;;;;;20.89;58.07;100653.50;5077408;27;45394;-74
2022/10/24 14:35:54;;;;;;;;;1.75;1.75;;;;;21.03;57.34;100642.22;5077705;27;45532;-73
2022/10/24 14:38:21;;;;;;;;;1.00;1.00;;;;;21.31;56.54;100643.31;5096242;27;45365;-74
2022/10/24 14:40:48;;;;;;;;;1.75;0.50;;;;;21.45;55.85;100640.16;5095473;27;45511;-74
2022/10/24 14:43:28;;;;;;;;;0.75;0.75;;;;;21.36;56.05;100641.00;5095748;27;45396;-73
2022/10/24 14:46:11;;;;;;;;;1.50;0.50;;;;;21.64;56.09;100642.91;5095787;27;45392;-73
2022/10/24 14:48:39;;;;;;;;;1.00;1.00;;;;;21.82;55.71;100670.31;5095939;27;45380;-73
2022/10/24 14:51:10;;;;;;;;;0.75;0.75;;;;;22.03;55.71;100671.03;5095489;27;45362;-74
2022/10/24 14:53:38;;;;;;;;;0.25;0.25;;;;;21.75;55.41;100652.81;5095738;27;45355;-73
2022/10/24 14:56:12;;;;;;;;;0.75;0.75;;;;;21.70;55.18;100655.94;5095916;27;45377;-73
2022/10/24 14:58:39;;;;;;;;;0.50;0.50;;;;;22.07;54.38;100683.41;5095489;27;45332;-74
2022/10/24 15:01:04;;;;;;;;;0.25;0.25;;;;;22.43;53.40;100679.03;5095420;27;45446;-74
2022/10/24 15:03:30;;;;;;;;;0.00;0.00;;;;;22.50;53.65;100680.16;5095860;27;45192;-73
2022/10/24 15:06:07;;;;;;;;;0.25;0.00;;;;;22.23;54.03;100680.94;5095979;27;45239;-73
2022/10/24 15:08:37;;;;;;;;;0.75;0.50;;;;;21.96;54.51;100680.78;5095792;27;46475;-74
2022/10/24 15:11:26;;;;;;;;;0.25;0.25;;;;;21.41;55.64;100671.47;5095464;27;46170;-73
2022/10/24 15:13:52;;;;;;;;;0.00;0.00;;;;;21.14;56.46;100683.84;5094807;27;45285;-73
2022/10/24 15:16:34;;;;;;;;;1.00;1.00;;;;;20.85;57.11;100677.44;5094911;27;45241;-73
2022/10/24 15:19:02;;;;;;;;;1.00;1.00;;;;;20.67;57.68;100682.66;5095851;27;45442;-74
2022/10/24 15:21:34;;;;;;;;;0.75;0.00;;;;;20.20;58.33;100667.78;5095704;27;45979;-73
2022/10/24 15:24:00;;;;;;;;;0.75;0.50;;;;;19.97;58.80;100672.50;5084392;27;45443;-74
2022/10/24 15:26:35;;;;;;;;;1.00;1.00;;;;;20.08;59.37;100687.88;5074885;28;45284;-73
2022/10/24 15:29:01;;;;;;;;;1.00;0.00;;;;;20.05;59.08;100693.59;5067683;27;45473;-75
2022/10/24 15:31:26;;;;;;;;;1.00;1.00;;;;;19.75;60.11;100659.00;5094835;27;45806;-74
2022/10/24 15:33:52;;;;;;;;;0.00;0.00;;;;;19.83;60.23;100688.25;5094933;27;45266;-73
2022/10/24 15:36:33;;;;;;;;;0.00;0.00;;;;;19.73;60.65;100696.38;5095167;27;45182;-73
2022/10/24 15:39:20;;;;;;;;;0.00;0.00;;;;;19.65;60.56;100693.41;5094592;27;45484;-73
2022/10/24 15:41:46;;;;;;;;;0.75;0.75;;;;;19.57;60.19;100680.44;5094843;27;45372;-74
2022/10/24 15:44:25;;;;;;;;;3.00;0.00;;;;;19.59;60.60;100726.56;5094625;27;45171;-73
2022/10/24 15:46:50;;;;;;;;;1.25;0.00;;;;;19.54;61.11;100699.78;5095448;27;46024;-72
2022/10/24 15:49:16;;;;;;;;;0.75;0.75;;;;;19.53;61.10;100702.59;5094818;27;45363;-73
2022/10/24 15:51:44;;;;;;;;;0.00;0.00;;;;;19.69;60.65;100719.38;5095195;27;46133;-74
2022/10/24 15:54:11;;;;;;;;;0.00;0.00;;;;;19.60;61.05;100703.81;5095683;27;45441;-73
2022/10/24 15:56:36;;;;;;;;;1.75;0.50;;;;;19.53;61.02;100717.06;5095865;27;45304;-75
2022/10/24 15:59:02;;;;;;;;;0.00;0.00;;;;;19.47;61.43;100709.44;5094956;27;45485;-74
2022/10/24 16:01:36;;;;;;;;;0.50;0.50;;;;;19.38;61.83;100717.47;5094538;27;45400;-73
2022/10/24 16:04:02;;;;;;;;;0.00;0.00;;;;;19.32;62.44;100715.22;5094639;27;45341;-73
2022/10/24 16:06:27;;;;;;;;;0.00;0.00;;;;;19.31;62.35;100716.25;5094605;27;45557;-73
2022/10/24 16:08:53;;;;;;;;;0.00;0.00;;;;;19.17;62.92;100710.06;5093569;27;45561;-72
2022/10/24 16:11:18;;;;;;;;;0.00;0.00;;;;;19.23;62.52;100736.75;5094687;27;45486;-74
2022/10/24 16:13:44;;;;;;;;;3.75;0.75;;;;;19.24;62.98;100721.28;5094273;27;45280;-74